createdAt,value
2019-02-22T00:00:03.998Z,77.29
2019-02-22T00:02:36.004Z,77.26
2019-02-22T00:05:06.753Z,77.24
2019-02-22T00:07:36.393Z,77.33
2019-02-22T00:10:07.933Z,77.19
2019-02-22T00:12:37.749Z,77.20
2019-02-22T00:15:08.204Z,77.12
2019-02-22T00:17:37.988Z,77.03
2019-02-22T00:20:07.989Z,76.35
2019-02-22T00:22:37.795Z,76.57
2019-02-22T00:25:07.722Z,76.76
2019-02-22T00:27:37.396Z,76.67
2019-02-22T00:30:07.252Z,76.29
2019-02-22T00:32:37.313Z,76.41
2019-02-22T00:47:44.516Z,75.87
2019-02-22T00:54:13.803Z,75.61
2019-02-22T00:56:43.388Z,75.67
2019-02-22T00:59:13.179Z,75.72
2019-02-22T01:04:54.719Z,76.17
2019-02-22T01:33:35.582Z,76.38
2019-02-22T01:36:05.439Z,76.24
2019-02-22T01:38:35.350Z,76.27
2019-02-22T01:43:46.331Z,75.69
2019-02-22T01:46:34.975Z,75.38
2019-02-22T01:49:05.396Z,75.25
2019-02-22T01:51:35.603Z,74.67
2019-02-22T02:13:30.494Z,73.57
2019-02-22T02:22:52.128Z,73.54
2019-02-22T02:28:45.448Z,73.34
2019-02-22T02:31:34.356Z,72.98
2019-02-22T02:36:39.190Z,72.10
2019-02-22T02:39:09.231Z,72.53
2019-02-22T02:41:38.962Z,72.77
2019-02-22T02:53:40.211Z,72.76
2019-02-22T03:03:21.512Z,73.08
2019-02-22T03:06:09.970Z,72.99
2019-02-22T03:08:39.753Z,73.21
2019-02-22T03:11:20.034Z,73.28
2019-02-22T03:13:41.088Z,73.33
2019-02-22T03:16:10.982Z,73.34
2019-02-22T03:21:23.202Z,73.02
2019-02-22T03:23:53.000Z,73.10
2019-02-22T03:26:22.705Z,73.23
2019-02-22T03:28:52.363Z,73.35
2019-02-22T03:34:04.352Z,73.39
2019-02-22T03:36:34.183Z,73.61
2019-02-22T03:48:04.725Z,73.78
2019-02-22T03:50:34.550Z,73.74
2019-02-22T03:56:09.941Z,73.99
2019-02-22T03:58:40.037Z,73.99
2019-02-22T04:01:10.040Z,74.03
2019-02-22T04:03:39.923Z,73.71
2019-02-22T04:06:09.745Z,74.17
2019-02-22T04:08:39.451Z,74.05
2019-02-22T04:11:09.270Z,73.85
2019-02-22T04:13:38.897Z,73.98
2019-02-22T04:16:08.877Z,74.12
2019-02-22T04:21:49.863Z,73.94
2019-02-22T04:24:19.532Z,73.94
2019-02-22T04:26:49.188Z,74.04
2019-02-22T04:32:13.067Z,73.75
2019-02-22T04:34:42.698Z,74.03
2019-02-22T04:37:12.603Z,73.70
2019-02-22T04:39:42.324Z,73.75
2019-02-22T04:44:59.583Z,73.79
2019-02-22T04:47:48.159Z,73.89
2019-02-22T04:50:17.921Z,73.81
2019-02-22T04:52:47.530Z,73.92
2019-02-22T04:55:17.132Z,73.82
2019-02-22T04:57:47.184Z,73.82
2019-02-22T05:00:16.887Z,73.84
2019-02-22T05:02:46.605Z,73.86
2019-02-22T05:10:27.020Z,73.85
2019-02-22T05:12:56.662Z,73.60
2019-02-22T05:15:26.899Z,73.66
2019-02-22T05:17:56.585Z,73.43
2019-02-22T05:20:26.158Z,73.52
2019-02-22T05:31:39.208Z,73.48
2019-02-22T05:34:09.525Z,73.31
2019-02-22T05:36:39.295Z,73.36
2019-02-22T05:39:18.447Z,73.26
2019-02-22T05:42:01.657Z,73.09
2019-02-22T05:44:31.799Z,72.88
2019-02-22T05:52:50.229Z,73.30
2019-02-22T05:58:47.734Z,72.95
2019-02-22T06:01:17.667Z,73.04
2019-02-22T06:03:47.741Z,73.04
2019-02-22T06:06:17.503Z,73.08
2019-02-22T06:14:35.665Z,73.28
2019-02-22T06:17:25.922Z,73.09
2019-02-22T06:19:55.747Z,73.03
2019-02-22T06:32:05.159Z,73.06
2019-02-22T06:37:59.020Z,73.00
2019-02-22T06:57:03.998Z,72.80
2019-02-22T06:59:36.934Z,72.64
2019-02-22T07:08:46.442Z,72.12
2019-02-22T07:17:48.883Z,71.93
2019-02-22T07:28:57.051Z,71.66
2019-02-22T07:31:27.339Z,71.74
2019-02-22T07:41:25.362Z,71.64
2019-02-22T07:46:56.689Z,71.62
2019-02-22T07:49:28.086Z,71.52
2019-02-22T07:55:12.447Z,71.54
2019-02-22T08:07:14.612Z,70.82
2019-02-22T08:09:44.590Z,70.74
2019-02-22T08:21:54.302Z,69.00
2019-02-22T08:24:25.909Z,68.85
2019-02-22T08:26:56.542Z,68.89
2019-02-22T08:29:26.783Z,68.79
2019-02-22T08:32:35.682Z,68.53
2019-02-22T08:35:06.047Z,68.29
2019-02-22T08:38:14.978Z,67.83
2019-02-22T08:43:59.461Z,67.10
2019-02-22T08:49:38.464Z,66.56
2019-02-22T08:52:08.161Z,66.13
2019-02-22T08:55:17.051Z,65.45
2019-02-22T08:58:08.595Z,65.44
2019-02-22T09:03:50.890Z,65.29
2019-02-22T09:12:41.252Z,64.40
2019-02-22T09:19:14.934Z,63.91
2019-02-22T09:24:55.631Z,63.55
2019-02-22T09:37:18.558Z,61.63
2019-02-22T09:39:48.347Z,61.15
2019-02-22T09:45:43.211Z,61.09
2019-02-22T09:51:36.622Z,59.63
2019-02-22T10:00:22.286Z,57.59
2019-02-22T10:12:30.378Z,57.82
2019-02-22T10:15:00.533Z,58.36
2019-02-22T10:18:07.928Z,58.19
2019-02-22T10:23:52.209Z,58.62
2019-02-22T10:27:01.063Z,58.09
2019-02-22T10:29:31.227Z,58.28
2019-02-22T10:38:29.415Z,58.54
2019-02-22T10:41:19.538Z,56.73
2019-02-22T10:44:17.354Z,57.12
2019-02-22T10:49:42.598Z,57.13
2019-02-22T10:55:59.031Z,57.42
2019-02-22T11:01:28.831Z,57.49
2019-02-22T11:03:58.655Z,57.50
2019-02-22T11:06:29.011Z,57.26
2019-02-22T11:12:10.592Z,57.21
2019-02-22T11:18:32.970Z,56.83
2019-02-22T11:27:47.521Z,57.08
2019-02-22T11:30:17.916Z,57.11
2019-02-22T11:33:08.009Z,57.13
2019-02-22T11:35:37.914Z,56.46
2019-02-22T11:38:07.898Z,56.63
2019-02-22T11:44:46.279Z,56.20
2019-02-22T11:56:22.862Z,54.44
2019-02-22T11:58:52.951Z,54.42
2019-02-22T12:01:42.976Z,54.19
2019-02-22T12:04:51.820Z,54.19
2019-02-22T12:13:32.661Z,54.11
2019-02-22T12:22:25.011Z,54.06
2019-02-22T12:35:19.661Z,53.90
2019-02-22T12:37:49.608Z,53.46
2019-02-22T12:46:48.007Z,54.48
2019-02-22T12:59:56.500Z,53.81
2019-02-22T13:02:26.490Z,53.81
2019-02-22T13:07:52.693Z,53.81
2019-02-22T13:10:59.913Z,53.81
2019-02-22T13:16:42.140Z,53.54
2019-02-22T13:19:49.660Z,53.20
2019-02-22T13:25:55.814Z,52.77
2019-02-22T13:28:25.744Z,52.77
2019-02-22T13:30:55.887Z,53.36
2019-02-22T13:34:03.364Z,53.67
2019-02-22T13:36:53.439Z,53.50
2019-02-22T13:39:23.348Z,53.83
2019-02-22T13:54:44.452Z,55.74
2019-02-22T14:00:17.995Z,56.13
2019-02-22T14:03:26.785Z,56.27
2019-02-22T14:08:50.881Z,56.77
2019-02-22T14:11:40.912Z,57.20
2019-02-22T14:14:30.991Z,57.27
2019-02-22T14:23:11.534Z,57.86
2019-02-22T14:35:33.208Z,58.96
2019-02-22T14:38:03.227Z,59.05
2019-02-22T14:40:33.298Z,59.05
2019-02-22T14:43:23.380Z,59.06
2019-02-22T14:48:47.324Z,59.50
2019-02-22T14:57:46.314Z,59.86
2019-02-22T15:09:28.916Z,60.82
2019-02-22T15:18:30.270Z,61.24
2019-02-22T15:24:18.154Z,61.02
2019-02-22T15:26:48.092Z,61.09
2019-02-22T15:29:17.929Z,61.45
2019-02-22T15:31:47.548Z,61.54
2019-02-22T15:34:17.306Z,61.50
2019-02-22T15:36:47.132Z,61.48
2019-02-22T15:39:16.851Z,61.66
2019-02-22T15:41:46.658Z,61.79
2019-02-22T15:44:16.489Z,61.85
2019-02-22T15:46:46.293Z,61.98
2019-02-22T15:49:16.161Z,62.05
2019-02-22T15:51:46.167Z,62.12
2019-02-22T15:54:15.867Z,62.24
2019-02-22T15:56:46.203Z,62.10
2019-02-22T15:59:15.857Z,62.19
2019-02-22T16:01:54.839Z,62.38
2019-02-22T16:04:39.084Z,62.46
2019-02-22T16:07:07.998Z,62.48
2019-02-22T16:09:37.936Z,62.43
2019-02-22T16:12:07.725Z,62.36
2019-02-22T16:14:37.599Z,62.58
2019-02-22T16:17:07.539Z,62.83
2019-02-22T16:19:37.210Z,62.89
2019-02-22T16:22:06.781Z,62.93
2019-02-22T16:24:36.778Z,63.00
2019-02-22T16:27:06.620Z,63.09
2019-02-22T16:29:36.537Z,63.38
2019-02-22T16:32:06.793Z,63.19
2019-02-22T16:34:43.583Z,63.11
2019-02-22T16:37:08.326Z,62.98
2019-02-22T16:39:38.122Z,63.08
2019-02-22T16:42:07.837Z,63.23
2019-02-22T16:44:37.982Z,63.53
2019-02-22T16:47:07.876Z,63.88
2019-02-22T16:49:37.957Z,63.89
2019-02-22T16:52:07.704Z,63.95
2019-02-22T16:54:37.737Z,63.87
2019-02-22T16:57:08.522Z,63.77
2019-02-22T16:59:38.517Z,63.95
2019-02-22T17:02:08.285Z,64.21
2019-02-22T17:04:38.760Z,64.43
2019-02-22T17:07:08.440Z,64.30
2019-02-22T17:09:38.087Z,64.10
2019-02-22T17:12:08.211Z,64.38
2019-02-22T17:14:38.095Z,64.40
2019-02-22T17:17:07.888Z,64.46
2019-02-22T17:19:37.964Z,64.70
2019-02-22T17:22:09.676Z,64.72
2019-02-22T17:24:40.956Z,64.59
2019-02-22T17:27:10.899Z,64.71
2019-02-22T17:29:40.908Z,64.71
2019-02-22T17:32:10.926Z,64.84
2019-02-22T17:34:40.599Z,64.94
2019-02-22T17:37:10.274Z,65.03
2019-02-22T17:39:40.429Z,65.07
2019-02-22T17:42:10.240Z,65.16
2019-02-22T17:44:39.893Z,65.26
2019-02-22T17:47:09.710Z,65.20
2019-02-22T17:49:39.414Z,65.41
2019-02-22T17:52:09.128Z,65.52
2019-02-22T17:54:38.982Z,65.48
2019-02-22T17:57:08.953Z,65.41
2019-02-22T17:59:38.633Z,65.46
2019-02-22T18:02:08.579Z,65.43
2019-02-22T18:04:38.597Z,65.68
2019-02-22T18:07:08.518Z,65.60
2019-02-22T18:09:38.684Z,65.82
2019-02-22T18:12:08.321Z,65.82
2019-02-22T18:14:38.091Z,65.85
2019-02-22T18:17:08.869Z,66.06
2019-02-22T18:19:38.745Z,66.23
2019-02-22T18:22:08.521Z,66.40
2019-02-22T18:24:38.556Z,66.94
2019-02-22T18:27:08.368Z,67.09
2019-02-22T18:29:38.071Z,67.01
2019-02-22T18:32:08.363Z,66.80
2019-02-22T18:34:38.356Z,66.81
2019-02-22T18:37:08.308Z,66.88
2019-02-22T18:39:38.319Z,66.87
2019-02-22T18:42:08.038Z,66.83
2019-02-22T18:44:37.761Z,66.96
2019-02-22T18:47:18.747Z,66.92
2019-02-22T18:49:39.528Z,66.97
2019-02-22T18:52:09.485Z,67.13
2019-02-22T18:54:39.110Z,67.11
2019-02-22T18:57:08.960Z,67.14
2019-02-22T18:59:38.854Z,67.33
2019-02-22T19:02:08.482Z,67.30
2019-02-22T19:04:38.523Z,67.38
2019-02-22T19:07:08.477Z,67.43
2019-02-22T19:09:38.153Z,67.66
2019-02-22T19:12:08.157Z,67.86
2019-02-22T19:14:38.260Z,67.68
2019-02-22T19:17:07.985Z,67.71
2019-02-22T19:19:37.653Z,67.88
2019-02-22T19:22:07.535Z,68.08
2019-02-22T19:24:37.404Z,68.57
2019-02-22T19:27:07.208Z,68.37
2019-02-22T19:29:38.362Z,68.55
2019-02-22T19:32:08.160Z,68.54
2019-02-22T19:34:37.757Z,68.72
2019-02-22T19:37:09.067Z,68.75
2019-02-22T19:39:38.816Z,68.67
2019-02-22T19:42:08.729Z,68.92
2019-02-22T19:44:38.772Z,68.94
2019-02-22T19:47:08.507Z,69.01
2019-02-22T19:49:40.320Z,69.18
2019-02-22T19:52:10.237Z,69.14
2019-02-22T19:54:40.140Z,69.24
2019-02-22T19:57:10.021Z,69.46
2019-02-22T19:59:40.004Z,69.62
2019-02-22T20:02:09.848Z,69.47
2019-02-22T20:04:39.952Z,69.46
2019-02-22T20:07:09.708Z,69.42
2019-02-22T20:09:39.295Z,69.53
2019-02-22T20:12:09.351Z,69.67
2019-02-22T20:14:39.117Z,69.55
2019-02-22T20:17:09.129Z,69.72
2019-02-22T20:19:39.071Z,69.51
2019-02-22T20:22:10.932Z,69.41
2019-02-22T20:24:40.229Z,69.18
2019-02-22T20:27:10.031Z,68.99
2019-02-22T20:29:39.639Z,68.63
2019-02-22T20:32:09.422Z,68.73
2019-02-22T20:34:39.212Z,68.72
2019-02-22T20:37:09.359Z,68.71
2019-02-22T20:39:39.177Z,68.56
2019-02-22T20:42:08.902Z,68.35
2019-02-22T20:44:38.763Z,68.27
2019-02-22T20:47:09.065Z,68.27
2019-02-22T20:49:38.784Z,68.30
2019-02-22T20:52:08.633Z,68.27
2019-02-22T20:54:38.346Z,68.36
2019-02-22T20:57:08.211Z,68.24
2019-02-22T20:59:37.971Z,68.33
2019-02-22T21:02:07.713Z,68.22
2019-02-22T21:04:37.643Z,68.11
2019-02-22T21:07:07.366Z,68.12
2019-02-22T21:09:37.287Z,68.13
2019-02-22T21:12:07.345Z,67.97
2019-02-22T21:14:37.231Z,67.89
2019-02-22T21:17:07.029Z,67.80
2019-02-22T21:19:36.905Z,67.56
2019-02-22T21:22:06.736Z,67.58
2019-02-22T21:24:36.617Z,67.80
2019-02-22T21:27:06.632Z,67.59
2019-02-22T21:29:39.060Z,67.72
2019-02-22T21:32:08.246Z,68.05
2019-02-22T21:34:38.054Z,68.08
2019-02-22T21:37:08.410Z,67.98
2019-02-22T21:39:39.617Z,68.00
2019-02-22T21:42:19.663Z,67.87
2019-02-22T21:44:41.575Z,67.86
2019-02-22T21:47:11.415Z,67.97
2019-02-22T21:49:41.290Z,68.15
2019-02-22T21:52:11.716Z,68.41
2019-02-22T21:54:41.443Z,68.43
2019-02-22T21:57:11.380Z,68.71
2019-02-22T21:59:41.545Z,68.85
2019-02-22T22:02:11.347Z,69.08
2019-02-22T22:04:41.091Z,69.21
2019-02-22T22:07:10.973Z,69.09
2019-02-22T22:09:40.673Z,69.27
2019-02-22T22:12:10.404Z,69.33
2019-02-22T22:14:40.121Z,69.41
2019-02-22T22:17:10.303Z,69.49
2019-02-22T22:19:40.184Z,69.65
2019-02-22T22:22:10.036Z,69.72
2019-02-22T22:24:40.078Z,70.08
2019-02-22T22:27:10.015Z,70.35
2019-02-22T22:29:40.014Z,70.21
2019-02-22T22:32:09.687Z,70.16
2019-02-22T22:34:39.414Z,70.22
2019-02-22T22:37:09.574Z,70.62
2019-02-22T22:39:39.548Z,70.57
2019-02-22T22:42:09.145Z,70.65
2019-02-22T22:44:39.268Z,70.49
2019-02-22T22:47:09.334Z,70.64
2019-02-22T22:49:39.337Z,70.67
2019-02-22T22:52:09.673Z,70.77
2019-02-22T22:54:39.668Z,70.87
2019-02-22T22:57:09.437Z,70.93
2019-02-22T22:59:39.675Z,70.90
2019-02-22T23:02:09.763Z,70.80
2019-02-22T23:04:39.992Z,70.86
2019-02-22T23:07:10.129Z,70.73
2019-02-22T23:09:40.083Z,70.90
2019-02-22T23:12:10.220Z,70.86
2019-02-22T23:14:40.713Z,70.90
2019-02-22T23:17:10.312Z,71.33
2019-02-22T23:19:40.204Z,71.21
2019-02-22T23:22:09.844Z,71.34
2019-02-22T23:24:39.764Z,71.52
2019-02-22T23:27:09.763Z,71.44
2019-02-22T23:29:39.465Z,71.44
2019-02-22T23:32:09.248Z,71.28
2019-02-22T23:34:38.981Z,71.23
2019-02-22T23:37:08.749Z,71.31
2019-02-22T23:39:38.824Z,71.56
2019-02-22T23:42:08.714Z,71.67
2019-02-22T23:44:38.622Z,71.47
2019-02-22T23:47:08.441Z,71.60
2019-02-22T23:49:38.502Z,71.95
2019-02-22T23:52:08.176Z,71.83
2019-02-22T23:54:37.934Z,71.84
2019-02-22T23:57:07.753Z,71.75
2019-02-22T23:59:37.366Z,71.76
